Batteau, Canada
Current Conditions -  °F | °C
As of 12:00 PM on Thursday 30 Oct 2014 (Local Time) from CWCA Reporting Station
Overcast Overcast  
Wind Chill: 37°   Ceiling: 1500
Heat Index: 37°   Visibility: 15mi
Dew Point: 36°   Wind: 3mph
Humidity: 93%   Direction: 230°SW
Pressure: 29.41"   Gusts: NA
Location:  53.4°N, 55.78°W
Report Text: CWCA 301500Z 23003KT 15SM FEW006 OVC015 03/02 A2941 RMK ST2SC6 CLD TPG HLS NE SLP961
Loading
Personal Weather Stations






























Interactive Weather Map
Tropical Storm Tracking
New forecast layout! Learn more

10-Day Weather Forecast

Advertisements
Track Severe Weather on mobile